Time;durP1;ratioP1;P1;durP2;ratioP2;P2;SDS_P1;SDS_P2;PMS_P1;PMS_P2;Temp;Humidity;BMP_temperature;BMP_pressure;BME280_temperature;BME280_humidity;BME280_pressure;Samples;Min_cycle;Max_cycle;Signal;HPM_P1;HPM_P2
2022/10/09 00:00:16;;;;;;;14.95;2.80;;;8.90;99.90;;;;;;5069978;28;20462;-82
2022/10/09 00:02:42;;;;;;;7.50;2.45;;;8.60;99.90;;;;;;5069817;28;20752;-82
2022/10/09 00:05:08;;;;;;;10.60;2.55;;;9.20;99.90;;;;;;5069704;28;20060;-83
2022/10/09 00:07:33;;;;;;;6.07;2.40;;;8.90;99.90;;;;;;5070079;28;20040;-82
2022/10/09 00:09:59;;;;;;;11.73;2.65;;;8.50;99.90;;;;;;5070089;28;20373;-82
2022/10/09 00:12:25;;;;;;;9.20;2.45;;;8.50;99.90;;;;;;5069624;28;20475;-81
2022/10/09 00:14:50;;;;;;;11.82;3.03;;;9.00;99.90;;;;;;5069761;28;20044;-82
2022/10/09 00:17:16;;;;;;;8.15;2.58;;;8.80;99.90;;;;;;5069507;28;20102;-81
2022/10/09 00:19:42;;;;;;;11.10;2.50;;;8.50;99.90;;;;;;5069644;28;20066;-81
2022/10/09 00:22:07;;;;;;;10.38;3.13;;;8.50;99.90;;;;;;5069560;28;20053;-83
2022/10/09 00:24:33;;;;;;;12.00;2.90;;;8.50;99.90;;;;;;5069464;28;20051;-81
2022/10/09 00:26:58;;;;;;;7.20;2.08;;;8.50;99.90;;;;;;5051032;28;20056;-81
2022/10/09 00:29:24;;;;;;;9.57;2.55;;;8.50;99.90;;;;;;5069526;28;20052;-82
2022/10/09 00:31:50;;;;;;;10.27;2.22;;;8.50;99.90;;;;;;5069912;28;20051;-81
2022/10/09 00:34:15;;;;;;;7.65;2.15;;;8.50;99.90;;;;;;5069643;28;20044;-82
2022/10/09 00:36:41;;;;;;;9.30;2.33;;;8.50;99.90;;;;;;5069689;28;20610;-81
2022/10/09 00:39:07;;;;;;;7.28;2.20;;;8.40;99.90;;;;;;5069780;28;20044;-80
2022/10/09 00:41:33;;;;;;;10.52;2.70;;;8.30;99.90;;;;;;5069688;28;20048;-80
2022/10/09 00:44:01;;;;;;;9.63;2.13;;;8.40;99.90;;;;;;5051055;28;20230;-81
2022/10/09 00:46:43;;;;;;;7.10;2.28;;;8.60;99.90;;;;;;5069440;28;20045;-80
2022/10/09 00:49:28;;;;;;;6.60;2.08;;;8.30;99.90;;;;;;5069223;28;20064;-80
2022/10/09 00:51:57;;;;;;;8.82;2.20;;;8.90;99.90;;;;;;5051916;28;20154;-83
2022/10/09 00:54:25;;;;;;;11.07;2.13;;;8.30;99.90;;;;;;5070547;28;20089;-81
2022/10/09 00:56:52;;;;;;;14.63;2.67;;;9.00;99.90;;;;;;5073641;28;20048;-81
2022/10/09 00:59:18;;;;;;;7.93;2.40;;;8.30;99.90;;;;;;5073307;28;20045;-82
2022/10/09 01:01:44;;;;;;;9.23;2.80;;;8.90;99.90;;;;;;5073096;28;20056;-82
2022/10/09 01:04:10;;;;;;;7.70;2.35;;;8.30;99.90;;;;;;5072908;28;20040;-82
2022/10/09 01:06:48;;;;;;;16.55;2.40;;;8.20;99.90;;;;;;5073114;28;20044;-81
2022/10/09 01:09:18;;;;;;;14.65;2.97;;;8.20;99.90;;;;;;5073446;28;20631;-80
2022/10/09 01:12:06;;;;;;;10.73;2.65;;;8.20;99.90;;;;;;5072916;28;20041;-79
2022/10/09 01:14:43;;;;;;;7.43;2.50;;;8.20;99.90;;;;;;5072396;28;20048;-82
2022/10/09 01:18:00;;;;;;;15.30;2.92;;;8.20;99.90;;;;;;5072982;28;20102;-81
2022/10/09 01:20:37;;;;;;;15.50;3.60;;;8.20;99.90;;;;;;5010441;28;20054;-81
2022/10/09 01:23:40;;;;;;;10.73;2.78;;;8.20;99.90;;;;;;5009917;28;20053;-81
2022/10/09 01:26:31;;;;;;;6.72;2.78;;;8.10;99.90;;;;;;5009945;28;20050;-80
2022/10/09 01:29:00;;;;;;;11.52;3.25;;;8.10;99.90;;;;;;5010371;28;20054;-81
2022/10/09 01:31:31;;;;;;;8.88;2.90;;;8.10;99.90;;;;;;5009744;28;20050;-81
2022/10/09 01:34:00;;;;;;;8.13;2.83;;;8.10;99.90;;;;;;5010256;28;20046;-81
2022/10/09 01:36:29;;;;;;;10.75;2.60;;;8.00;99.90;;;;;;5010212;28;20060;-80
2022/10/09 01:38:58;;;;;;;8.88;2.42;;;8.30;99.90;;;;;;5009677;28;20599;-83
2022/10/09 01:41:25;;;;;;;6.35;2.88;;;8.00;99.90;;;;;;5010156;28;20045;-80
2022/10/09 01:43:51;;;;;;;11.25;2.53;;;8.00;99.90;;;;;;4993574;28;20543;-81
2022/10/09 01:46:20;;;;;;;14.63;3.00;;;7.90;99.90;;;;;;5009722;28;20054;-80
2022/10/09 01:49:06;;;;;;;8.07;2.70;;;7.90;99.90;;;;;;5009997;28;20149;-80
2022/10/09 01:51:57;;;;;;;8.40;2.78;;;7.90;99.90;;;;;;5010063;28;20168;-81
2022/10/09 01:54:36;;;;;;;10.27;2.83;;;8.40;99.90;;;;;;4993139;28;20116;-82
2022/10/09 01:57:05;;;;;;;13.10;3.13;;;7.90;99.90;;;;;;5040586;28;20423;-82
2022/10/09 01:59:35;;;;;;;12.85;3.90;;;8.30;99.90;;;;;;5052095;28;20053;-82
2022/10/09 02:02:01;;;;;;;12.82;3.70;;;8.40;99.90;;;;;;5067009;28;20052;-82
2022/10/09 02:04:29;;;;;;;10.27;2.95;;;7.80;99.90;;;;;;5071788;28;20048;-82
2022/10/09 02:06:55;;;;;;;9.80;2.83;;;8.30;99.90;;;;;;5070547;28;20053;-83
2022/10/09 02:09:22;;;;;;;9.40;3.20;;;7.70;99.90;;;;;;5071852;28;20047;-81
2022/10/09 02:11:54;;;;;;;7.47;2.45;;;7.70;99.90;;;;;;5071802;28;20049;-82
2022/10/09 02:14:20;;;;;;;8.52;2.80;;;7.70;99.90;;;;;;5071746;28;20046;-82
2022/10/09 02:16:51;;;;;;;7.15;2.25;;;7.60;99.90;;;;;;5071107;28;20491;-81
2022/10/09 02:19:35;;;;;;;9.10;2.38;;;7.70;99.90;;;;;;5053349;28;20044;-82
2022/10/09 02:22:11;;;;;;;8.50;3.05;;;7.50;99.90;;;;;;5071327;28;20055;-80
2022/10/09 02:24:39;;;;;;;8.60;2.92;;;7.50;99.90;;;;;;5071758;28;20064;-81
2022/10/09 02:27:05;;;;;;;10.30;2.75;;;8.10;99.90;;;;;;5071487;28;20112;-81
2022/10/09 02:29:31;;;;;;;16.80;2.50;;;7.90;99.90;;;;;;5071617;28;20090;-81
2022/10/09 02:31:57;;;;;;;8.60;2.50;;;7.30;99.90;;;;;;5070792;28;20036;-81
2022/10/09 02:34:23;;;;;;;8.65;2.65;;;7.30;99.90;;;;;;5071064;28;20056;-81
2022/10/09 02:36:48;;;;;;;7.80;2.35;;;7.20;99.90;;;;;;5071591;28;20420;-81
2022/10/09 02:39:14;;;;;;;8.57;3.10;;;7.20;99.90;;;;;;5071310;28;20401;-80
2022/10/09 02:41:40;;;;;;;9.35;3.10;;;7.10;99.90;;;;;;5071129;28;20048;-80
2022/10/09 02:44:06;;;;;;;8.45;3.25;;;7.10;99.90;;;;;;5070916;28;20040;-80
2022/10/09 02:46:32;;;;;;;11.98;3.58;;;7.10;99.90;;;;;;5071223;28;20095;-80
2022/10/09 02:48:58;;;;;;;12.15;3.67;;;7.20;99.90;;;;;;5070606;28;20051;-81
2022/10/09 02:51:24;;;;;;;11.52;4.32;;;7.10;99.90;;;;;;5070833;28;20044;-80
2022/10/09 02:53:53;;;;;;;10.73;3.35;;;7.40;99.90;;;;;;5071116;28;20047;-80
2022/10/09 02:56:20;;;;;;;15.55;3.33;;;7.10;99.90;;;;;;5070966;28;20052;-79
2022/10/09 02:58:46;;;;;;;8.63;3.55;;;7.10;99.90;;;;;;5053088;28;20052;-80
2022/10/09 03:01:12;;;;;;;10.98;3.47;;;7.10;99.90;;;;;;5070722;28;20387;-80
2022/10/09 03:03:37;;;;;;;10.25;3.65;;;7.10;99.90;;;;;;5070501;28;20470;-80
2022/10/09 03:06:15;;;;;;;9.13;4.00;;;7.10;99.90;;;;;;5071009;28;20116;-81
2022/10/09 03:08:45;;;;;;;9.38;3.55;;;7.10;99.90;;;;;;5052997;28;20051;-81
2022/10/09 03:11:12;;;;;;;9.48;3.38;;;7.10;99.90;;;;;;5070230;28;20052;-81
2022/10/09 03:13:38;;;;;;;11.63;3.70;;;7.10;99.90;;;;;;5069314;28;20060;-80
2022/10/09 03:16:09;;;;;;;10.60;3.90;;;7.10;99.90;;;;;;5070510;28;20459;-81
2022/10/09 03:18:36;;;;;;;14.93;4.13;;;7.10;99.90;;;;;;5069732;28;20163;-80
2022/10/09 03:21:06;;;;;;;13.55;3.75;;;7.60;99.90;;;;;;5069810;28;20051;-81
2022/10/09 03:23:32;;;;;;;8.50;3.45;;;7.00;99.90;;;;;;5069392;28;20052;-81
2022/10/09 03:26:00;;;;;;;6.35;2.75;;;7.00;99.90;;;;;;5070702;28;20048;-81
2022/10/09 03:28:26;;;;;;;6.53;2.80;;;6.90;99.90;;;;;;5070695;28;20277;-81
2022/10/09 03:30:53;;;;;;;8.10;3.58;;;6.80;99.90;;;;;;5070179;28;20064;-81
2022/10/09 03:33:18;;;;;;;9.68;3.55;;;6.80;99.90;;;;;;5070013;28;20883;-80
2022/10/09 03:35:45;;;;;;;6.82;3.83;;;6.70;99.90;;;;;;5070175;28;20055;-81
2022/10/09 03:38:12;;;;;;;7.40;3.70;;;6.80;99.90;;;;;;5035501;28;20536;-81
2022/10/09 03:40:37;;;;;;;9.23;4.13;;;7.20;99.90;;;;;;5069731;28;20038;-81
2022/10/09 03:43:03;;;;;;;11.77;4.65;;;6.70;99.90;;;;;;5070209;28;20465;-81
2022/10/09 03:45:28;;;;;;;11.23;4.50;;;6.70;99.90;;;;;;5070091;28;20109;-81
2022/10/09 03:47:54;;;;;;;9.85;4.30;;;6.70;99.90;;;;;;5069802;28;20080;-81
2022/10/09 03:50:20;;;;;;;11.32;4.72;;;6.70;99.90;;;;;;5069848;28;20053;-81
2022/10/09 03:52:45;;;;;;;10.88;4.15;;;7.10;99.90;;;;;;5069897;28;20071;-81
2022/10/09 03:55:11;;;;;;;12.68;4.70;;;6.80;99.90;;;;;;5070098;28;20032;-81
2022/10/09 03:57:37;;;;;;;12.38;5.00;;;6.80;99.90;;;;;;5070010;28;20820;-81
2022/10/09 04:00:04;;;;;;;9.38;5.05;;;6.80;99.90;;;;;;5069709;28;20044;-81
2022/10/09 04:02:31;;;;;;;12.27;4.95;;;6.80;99.90;;;;;;5051371;28;20109;-82
2022/10/09 04:04:57;;;;;;;13.07;5.22;;;6.80;99.90;;;;;;5052070;28;20048;-81
2022/10/09 04:07:23;;;;;;;10.63;5.43;;;6.80;99.90;;;;;;5069758;28;20121;-81
2022/10/09 04:09:48;;;;;;;14.32;5.38;;;7.30;99.90;;;;;;5069651;28;20052;-81
2022/10/09 04:12:14;;;;;;;10.95;4.65;;;6.70;99.90;;;;;;5069960;28;20064;-82
2022/10/09 04:14:40;;;;;;;11.98;5.28;;;6.70;99.90;;;;;;5069566;28;20053;-82
2022/10/09 04:17:06;;;;;;;9.40;4.88;;;6.70;99.90;;;;;;5068942;28;20165;-82
2022/10/09 04:19:31;;;;;;;12.65;5.25;;;7.10;99.90;;;;;;5070054;28;20048;-81
2022/10/09 04:21:57;;;;;;;10.35;4.72;;;6.70;99.90;;;;;;5069179;28;20040;-81
2022/10/09 04:24:23;;;;;;;16.30;5.13;;;6.70;99.90;;;;;;5051425;28;20082;-80
2022/10/09 04:26:48;;;;;;;8.50;5.10;;;6.70;99.90;;;;;;5069512;28;20568;-81
2022/10/09 04:29:14;;;;;;;11.05;4.90;;;6.70;99.90;;;;;;5070833;28;20102;-81
2022/10/09 04:31:40;;;;;;;8.40;5.07;;;6.70;99.90;;;;;;5073784;28;20037;-82
2022/10/09 04:34:05;;;;;;;10.55;5.45;;;6.70;99.90;;;;;;5072989;28;20142;-82
2022/10/09 04:36:31;;;;;;;7.70;4.60;;;6.70;99.90;;;;;;5073148;28;20072;-82
2022/10/09 04:38:57;;;;;;;11.40;5.07;;;6.60;99.90;;;;;;5073021;28;20437;-82
2022/10/09 04:41:22;;;;;;;12.23;4.88;;;6.60;99.90;;;;;;5073070;28;20521;-83
2022/10/09 04:43:53;;;;;;;12.68;5.07;;;6.60;99.90;;;;;;5072828;28;20076;-82
2022/10/09 04:46:19;;;;;;;14.77;5.07;;;6.60;99.90;;;;;;5072559;28;20098;-81
2022/10/09 04:48:45;;;;;;;11.45;4.88;;;6.60;99.90;;;;;;5073003;28;20044;-82
2022/10/09 04:51:12;;;;;;;14.48;5.22;;;6.90;99.90;;;;;;5072610;28;20055;-82
2022/10/09 04:53:38;;;;;;;10.20;4.95;;;6.60;99.90;;;;;;5072336;28;20044;-83
2022/10/09 04:56:07;;;;;;;9.25;4.88;;;6.60;99.90;;;;;;5062569;28;20060;-82
2022/10/09 04:58:35;;;;;;;10.25;4.93;;;6.50;99.90;;;;;;5072888;28;20110;-84
2022/10/09 05:01:15;;;;;;;7.20;4.70;;;6.50;99.90;;;;;;5072509;28;20395;-83
2022/10/09 05:03:41;;;;;;;8.93;4.68;;;6.40;99.90;;;;;;5072513;28;20040;-82
2022/10/09 05:06:09;;;;;;;9.70;4.25;;;6.40;99.90;;;;;;5072838;28;20151;-83
2022/10/09 05:08:36;;;;;;;10.45;4.78;;;6.40;99.90;;;;;;5072475;28;20044;-83
2022/10/09 05:11:04;;;;;;;8.77;4.10;;;6.40;99.90;;;;;;5071430;28;20530;-83
2022/10/09 05:13:31;;;;;;;10.57;4.53;;;6.30;99.90;;;;;;5072826;28;20128;-81
2022/10/09 05:16:01;;;;;;;5.72;3.92;;;6.30;99.90;;;;;;5054214;28;20052;-82
2022/10/09 05:18:27;;;;;;;8.10;4.15;;;6.90;99.90;;;;;;5071958;28;20053;-82
2022/10/09 05:20:53;;;;;;;10.95;4.78;;;6.20;99.90;;;;;;5072087;28;20051;-82
2022/10/09 05:23:19;;;;;;;13.05;5.07;;;6.20;99.90;;;;;;5072245;28;20053;-82
2022/10/09 05:25:57;;;;;;;14.63;5.03;;;6.90;99.90;;;;;;5071597;28;20044;-82
2022/10/09 05:28:23;;;;;;;10.27;4.93;;;6.20;99.90;;;;;;5072171;28;20037;-83
2022/10/09 05:30:49;;;;;;;12.27;5.13;;;6.10;99.90;;;;;;5071776;28;20056;-82
2022/10/09 05:33:15;;;;;;;13.18;5.13;;;6.70;99.90;;;;;;5072120;28;20462;-83
2022/10/09 05:35:52;;;;;;;11.27;4.97;;;6.10;99.90;;;;;;5072095;28;20058;-83
2022/10/09 05:38:18;;;;;;;9.77;4.75;;;6.10;99.90;;;;;;5072096;28;20273;-83
2022/10/09 05:40:55;;;;;;;10.95;5.47;;;6.10;99.90;;;;;;5061813;28;20044;-82
2022/10/09 05:43:26;;;;;;;10.88;5.07;;;6.00;99.90;;;;;;5072289;28;20437;-82
2022/10/09 05:45:52;;;;;;;14.48;5.72;;;6.10;99.90;;;;;;5071856;28;20033;-83
2022/10/09 05:48:18;;;;;;;9.95;5.50;;;6.00;99.90;;;;;;5071272;28;20048;-82
2022/10/09 05:50:44;;;;;;;9.38;5.85;;;6.00;99.90;;;;;;5071492;28;20048;-82
2022/10/09 05:53:09;;;;;;;21.70;5.63;;;6.00;99.90;;;;;;5071694;28;20452;-82
2022/10/09 05:55:35;;;;;;;15.80;6.07;;;6.00;99.90;;;;;;5072076;28;20664;-83
2022/10/09 05:58:01;;;;;;;13.00;5.80;;;6.00;99.90;;;;;;5052715;28;20048;-83
2022/10/09 06:00:27;;;;;;;11.25;6.10;;;6.00;99.90;;;;;;5071910;28;20086;-83
2022/10/09 06:02:53;;;;;;;10.27;5.47;;;5.90;99.90;;;;;;5071050;28;20131;-83
2022/10/09 06:05:19;;;;;;;11.95;5.72;;;6.00;99.90;;;;;;5071501;28;20112;-84
2022/10/09 06:07:46;;;;;;;10.82;5.63;;;5.90;99.90;;;;;;5061724;28;20590;-83
2022/10/09 06:10:11;;;;;;;11.52;5.53;;;5.90;99.90;;;;;;5071473;28;20033;-83
2022/10/09 06:12:37;;;;;;;9.65;5.10;;;5.90;99.90;;;;;;5070683;28;20487;-83
2022/10/09 06:15:03;;;;;;;7.40;4.63;;;5.90;99.90;;;;;;5071024;28;20052;-83
2022/10/09 06:17:29;;;;;;;7.20;4.05;;;5.90;99.90;;;;;;5070752;28;20554;-82
2022/10/09 06:19:54;;;;;;;12.13;5.57;;;5.90;99.90;;;;;;5070789;28;20120;-82
2022/10/09 06:22:20;;;;;;;10.60;4.85;;;5.90;99.90;;;;;;5041745;28;20053;-83
2022/10/09 06:24:48;;;;;;;12.63;5.63;;;5.90;99.90;;;;;;5067602;28;20040;-83
2022/10/09 06:27:14;;;;;;;13.98;5.40;;;5.90;99.90;;;;;;5045415;28;20508;-84
2022/10/09 06:29:40;;;;;;;8.13;5.60;;;5.90;99.90;;;;;;5070450;28;20040;-83
2022/10/09 06:32:05;;;;;;;9.23;5.82;;;6.00;99.90;;;;;;5070922;28;20051;-83
2022/10/09 06:34:31;;;;;;;13.05;6.38;;;6.00;99.90;;;;;;5070844;28;20182;-83
2022/10/09 06:36:56;;;;;;;12.38;5.97;;;6.50;99.90;;;;;;5070704;28;20047;-83
2022/10/09 06:39:22;;;;;;;10.75;6.43;;;6.00;99.90;;;;;;5070779;28;20039;-83
2022/10/09 06:41:48;;;;;;;18.85;7.07;;;6.10;99.90;;;;;;5070926;28;20135;-84
2022/10/09 06:44:15;;;;;;;15.63;6.75;;;6.10;99.90;;;;;;5069911;28;20041;-83
2022/10/09 06:46:42;;;;;;;10.77;6.38;;;6.10;99.90;;;;;;5070468;28;20049;-84
2022/10/09 06:49:09;;;;;;;15.05;7.30;;;6.20;99.90;;;;;;5052226;28;20379;-83
2022/10/09 06:51:36;;;;;;;16.30;8.40;;;6.20;99.90;;;;;;5070153;28;20445;-83
2022/10/09 06:54:06;;;;;;;20.48;10.13;;;6.20;99.90;;;;;;5070197;28;20044;-83
2022/10/09 06:56:32;;;;;;;25.35;9.93;;;6.30;99.90;;;;;;5044578;28;20502;-83
2022/10/09 06:59:02;;;;;;;20.77;10.10;;;6.80;99.90;;;;;;5069791;28;20051;-84
2022/10/09 07:01:30;;;;;;;17.75;8.80;;;6.40;99.90;;;;;;5056796;28;20174;-82
2022/10/09 07:04:01;;;;;;;14.52;6.80;;;6.40;99.90;;;;;;5060377;28;20404;-80
2022/10/09 07:06:30;;;;;;;16.67;7.80;;;6.40;99.90;;;;;;5058353;28;20045;-83
2022/10/09 07:09:03;;;;;;;13.50;7.30;;;7.00;99.90;;;;;;5066739;28;20040;-83
2022/10/09 07:11:36;;;;;;;15.68;8.23;;;6.50;99.90;;;;;;5062423;28;20164;-82
2022/10/09 07:14:05;;;;;;;16.95;8.82;;;7.20;99.90;;;;;;5070469;28;20549;-83
2022/10/09 07:16:34;;;;;;;16.63;8.80;;;6.70;99.90;;;;;;5069500;28;20105;-83
2022/10/09 07:19:06;;;;;;;18.20;10.02;;;6.80;99.90;;;;;;5070495;28;20097;-83
2022/10/09 07:21:32;;;;;;;26.75;13.15;;;6.80;99.90;;;;;;5052298;28;20150;-83
2022/10/09 07:24:01;;;;;;;29.35;14.32;;;6.90;99.90;;;;;;5070452;28;20787;-83
2022/10/09 07:26:29;;;;;;;23.48;15.80;;;6.90;99.90;;;;;;5033865;28;20479;-81
2022/10/09 07:28:56;;;;;;;29.92;16.63;;;7.00;99.90;;;;;;5070380;28;20045;-83
2022/10/09 07:31:22;;;;;;;31.35;17.13;;;7.10;99.90;;;;;;5035334;28;20141;-83
2022/10/09 07:33:49;;;;;;;30.35;17.23;;;7.10;99.90;;;;;;5070009;28;20041;-83
2022/10/09 07:36:15;;;;;;;25.42;16.52;;;7.20;99.90;;;;;;5069926;28;20062;-83
2022/10/09 07:38:41;;;;;;;24.40;14.75;;;7.90;99.90;;;;;;5069768;28;20049;-83
2022/10/09 07:41:09;;;;;;;24.17;15.30;;;7.70;99.90;;;;;;5076219;23;20778;-84
2022/10/09 07:43:36;;;;;;;31.70;17.30;;;7.10;99.90;;;;;;5014640;28;20520;-81
2022/10/09 07:46:04;;;;;;;24.98;15.18;;;8.00;99.90;;;;;;5014614;28;20046;-83
2022/10/09 07:48:30;;;;;;;26.45;15.20;;;7.60;99.90;;;;;;4988161;28;20092;-83
2022/10/09 07:50:56;;;;;;;22.77;14.05;;;7.60;99.90;;;;;;5019806;28;20575;-84
2022/10/09 07:53:22;;;;;;;27.55;13.18;;;7.70;99.90;;;;;;5018234;28;20054;-85
2022/10/09 07:55:48;;;;;;;22.67;13.70;;;7.90;99.90;;;;;;5003830;28;20046;-82
2022/10/09 07:58:24;;;;;;;20.25;12.65;;;8.60;99.90;;;;;;5021516;28;20041;-82
2022/10/09 08:00:50;;;;;;;18.13;11.75;;;8.00;99.90;;;;;;5003708;28;20187;-86
2022/10/09 08:03:16;;;;;;;21.30;12.40;;;8.30;99.90;;;;;;4990618;28;20128;-83
2022/10/09 08:05:57;;;;;;;26.10;12.85;;;8.20;99.90;;;;;;5000389;28;20060;-86
2022/10/09 08:08:22;;;;;;;;;;;8.80;99.90;;;;;;5004155;28;20732;-83
2022/10/09 08:10:48;;;;;;;20.27;11.88;;;8.50;99.90;;;;;;4997660;28;19932;-82
2022/10/09 08:13:13;;;;;;;14.88;9.98;;;8.60;99.90;;;;;;5006858;28;20100;-84
2022/10/09 08:15:43;;;;;;;16.70;9.63;;;9.50;99.90;;;;;;5021405;28;20556;-84
2022/10/09 08:18:12;;;;;;;13.73;8.35;;;9.20;99.90;;;;;;5020421;28;20057;-82
2022/10/09 08:20:38;;;;;;;15.32;9.05;;;9.20;99.90;;;;;;5028253;28;20107;-83
2022/10/09 08:23:04;;;;;;;17.08;8.63;;;9.80;99.90;;;;;;5021040;28;20041;-84
2022/10/09 08:25:36;;;;;;;14.63;7.78;;;9.30;99.90;;;;;;5020724;28;20048;-82
2022/10/09 08:28:02;;;;;;;17.88;7.63;;;9.50;99.90;;;;;;5011936;28;20049;-83
2022/10/09 08:30:28;;;;;;;13.68;6.63;;;10.20;99.90;;;;;;5010074;28;20045;-84
2022/10/09 08:32:54;;;;;;;17.13;6.68;;;10.20;99.90;;;;;;5009660;28;20100;-84
2022/10/09 08:35:22;;;;;;;14.60;5.72;;;10.60;99.90;;;;;;5018909;28;20505;-84
2022/10/09 08:37:48;;;;;;;13.82;4.57;;;10.80;99.90;;;;;;5021917;28;20038;-83
2022/10/09 08:40:37;;;;;;;9.27;4.00;;;11.20;99.90;;;;;;4999839;28;20053;-83
2022/10/09 08:43:05;;;;;;;9.30;3.78;;;11.30;99.90;;;;;;5027544;28;20061;-83
2022/10/09 08:45:37;;;;;;;10.02;3.30;;;11.60;99.90;;;;;;5029837;28;20034;-80
2022/10/09 08:48:14;;;;;;;12.32;3.75;;;11.50;99.90;;;;;;5026033;28;20493;-85
2022/10/09 08:50:47;;;;;;;9.40;3.08;;;12.10;99.90;;;;;;4992153;28;20057;-81
2022/10/09 08:53:25;;;;;;;5.80;2.90;;;12.20;99.90;;;;;;5009790;28;20429;-81
2022/10/09 08:55:56;;;;;;;11.60;2.80;;;11.90;99.90;;;;;;5019238;28;20046;-87
2022/10/09 08:58:28;;;;;;;5.75;3.00;;;12.30;99.90;;;;;;5019682;28;20195;-88
2022/10/09 09:01:05;;;;;;;12.65;3.90;;;12.70;99.90;;;;;;5030704;28;20067;-82
2022/10/09 09:04:13;;;;;;;8.30;2.90;;;12.60;99.90;;;;;;5008391;28;20058;-84
2022/10/09 09:07:15;;;;;;;11.52;2.92;;;12.80;99.90;;;;;;5025334;28;20396;-85
2022/10/09 09:09:47;;;;;;;10.57;2.78;;;13.10;99.90;;;;;;5027155;28;20045;-86
2022/10/09 09:12:35;;;;;;;9.32;2.80;;;13.20;99.90;;;;;;5028052;28;20071;-81
2022/10/09 09:15:12;;;;;;;8.80;2.58;;;13.30;99.90;;;;;;5029916;28;20510;-85
2022/10/09 09:17:56;;;;;;;10.05;2.80;;;13.50;99.90;;;;;;5023008;28;20491;-85
2022/10/09 09:20:38;;;;;;;9.23;3.35;;;13.70;99.90;;;;;;5004430;28;20213;-84
2022/10/09 09:23:12;;;;;;;8.68;2.58;;;14.30;99.90;;;;;;5032851;28;20049;-85
2022/10/09 09:25:41;;;;;;;8.85;2.65;;;14.20;99.90;;;;;;5032765;28;20056;-81
2022/10/09 09:28:32;;;;;;;11.00;3.30;;;14.00;99.90;;;;;;5032808;28;20056;-87
2022/10/09 09:31:18;;;;;;;7.80;2.20;;;14.60;99.90;;;;;;4994412;28;20174;-79
2022/10/09 09:34:17;;;;;;;10.43;2.75;;;14.40;99.90;;;;;;4994711;28;20068;-81
2022/10/09 09:36:56;;;;;;;6.90;2.25;;;14.40;99.90;;;;;;5013365;28;20773;-87
2022/10/09 09:39:27;;;;;;;10.00;2.25;;;14.70;99.90;;;;;;5013839;28;20165;-80
2022/10/09 09:41:58;;;;;;;12.70;1.92;;;14.70;99.90;;;;;;5021502;28;20064;-81
2022/10/09 09:44:27;;;;;;;13.85;2.15;;;14.60;99.90;;;;;;5029925;28;20184;-83
2022/10/09 09:46:55;;;;;;;6.60;1.88;;;14.70;99.90;;;;;;5005688;28;20137;-83
2022/10/09 09:49:26;;;;;;;6.20;1.70;;;14.80;99.90;;;;;;5009661;28;20060;-84
2022/10/09 09:51:53;;;;;;;7.78;1.75;;;14.80;99.90;;;;;;5009109;28;20176;-80
2022/10/09 09:54:28;;;;;;;11.43;2.10;;;15.00;99.90;;;;;;5009608;28;20219;-83
2022/10/09 09:56:57;;;;;;;8.35;1.88;;;15.20;99.90;;;;;;5009746;28;20049;-78
2022/10/09 09:59:37;;;;;;;7.75;1.90;;;15.00;99.90;;;;;;5009526;28;20046;-83
2022/10/09 10:02:22;;;;;;;10.80;1.95;;;15.10;99.90;;;;;;5002680;28;20054;-83
2022/10/09 10:05:11;;;;;;;;;;;15.30;99.90;;;;;;5008381;28;20057;-85
2022/10/09 10:07:37;;;;;;;9.05;1.73;;;15.40;99.90;;;;;;5014414;28;19917;-83
2022/10/09 10:10:14;;;;;;;7.93;1.65;;;15.40;99.90;;;;;;5031655;28;20124;-85
2022/10/09 10:12:55;;;;;;;9.50;1.63;;;15.50;99.90;;;;;;5014002;28;20124;-83
2022/10/09 10:15:54;;;;;;;7.05;1.45;;;15.60;99.90;;;;;;5029981;28;20512;-82
2022/10/09 10:18:22;;;;;;;6.78;1.60;;;15.70;99.90;;;;;;5011793;28;20064;-80
2022/10/09 10:21:01;;;;;;;7.15;1.50;;;15.90;99.90;;;;;;5016345;28;20045;-82
2022/10/09 10:23:43;;;;;;;9.52;1.35;;;15.90;99.90;;;;;;5030901;28;20052;-79
2022/10/09 10:26:19;;;;;;;7.10;1.30;;;15.90;99.90;;;;;;5030863;28;20048;-80
2022/10/09 10:29:00;;;;;;;7.95;1.25;;;16.00;99.90;;;;;;5030735;28;20492;-84
2022/10/09 10:31:58;;;;;;;11.85;1.50;;;16.10;99.90;;;;;;5034383;28;20041;-88
2022/10/09 10:34:30;;;;;;;8.88;1.38;;;16.20;99.90;;;;;;5014552;28;20049;-84
2022/10/09 10:37:02;;;;;;;8.45;1.60;;;16.30;99.90;;;;;;5031791;28;20443;-84
2022/10/09 10:39:40;;;;;;;8.27;1.10;;;16.30;99.90;;;;;;5030731;28;20116;-83
2022/10/09 10:42:17;;;;;;;9.68;1.65;;;16.40;99.90;;;;;;5029845;28;20112;-80
2022/10/09 10:44:55;;;;;;;6.95;1.38;;;16.40;99.90;;;;;;5031068;28;20131;-83
2022/10/09 10:47:25;;;;;;;6.95;1.40;;;16.60;99.90;;;;;;5012787;28;20037;-84
2022/10/09 10:49:52;;;;;;;7.03;1.25;;;16.60;99.90;;;;;;5030052;28;20053;-86
2022/10/09 10:52:52;;;;;;;6.60;1.77;;;16.60;99.90;;;;;;5030881;28;20048;-83
2022/10/09 10:55:21;;;;;;;9.23;1.30;;;16.70;99.90;;;;;;5007798;28;20054;-81
2022/10/09 10:58:18;;;;;;;6.28;1.00;;;16.80;99.90;;;;;;5008463;28;20107;-84
2022/10/09 11:01:14;;;;;;;6.90;1.30;;;16.90;99.90;;;;;;5007771;28;20498;-82
2022/10/09 11:04:05;;;;;;;7.47;1.30;;;17.10;99.90;;;;;;4999765;28;20479;-84
2022/10/09 11:06:46;;;;;;;6.05;1.30;;;17.20;99.90;;;;;;5000328;28;20054;-86
2022/10/09 11:09:32;;;;;;;6.25;1.17;;;17.40;99.90;;;;;;4991345;28;20066;-83
2022/10/09 11:12:08;;;;;;;5.60;1.05;;;17.70;99.90;;;;;;4991124;28;20049;-87
2022/10/09 11:15:21;;;;;;;6.45;1.00;;;17.80;99.90;;;;;;4999989;28;20057;-86
2022/10/09 11:18:31;;;;;;;12.75;1.42;;;17.80;99.90;;;;;;4956778;28;20043;-87
2022/10/09 11:21:03;;;;;;;6.70;1.30;;;17.80;99.90;;;;;;4875211;29;20056;-85
2022/10/09 11:24:17;;;;;;;8.68;1.42;;;17.90;99.90;;;;;;4892287;29;20067;-88
2022/10/09 11:26:55;;;;;;;6.30;1.10;;;17.90;99.90;;;;;;4873321;29;20059;-86
2022/10/09 11:29:30;;;;;;;5.03;1.23;;;17.90;99.90;;;;;;4870748;29;20060;-87
2022/10/09 11:32:01;;;;;;;5.88;1.20;;;18.00;99.90;;;;;;4853145;29;20053;-86
2022/10/09 11:34:41;;;;;;;6.25;1.15;;;18.00;99.90;;;;;;4843228;29;20508;-77
2022/10/09 11:37:15;;;;;;;6.68;1.13;;;18.00;99.90;;;;;;4868090;29;20045;-81
2022/10/09 11:39:41;;;;;;;4.93;1.33;;;17.90;99.90;;;;;;4865782;29;20132;-86
2022/10/09 11:42:11;;;;;;;6.05;1.27;;;18.20;99.90;;;;;;4868660;29;20059;-88
2022/10/09 11:45:01;;;;;;;5.47;1.33;;;18.20;99.90;;;;;;4863826;29;20068;-83
2022/10/09 11:47:40;;;;;;;6.82;1.10;;;18.20;99.90;;;;;;4843791;29;20077;-84
2022/10/09 11:50:41;;;;;;;7.35;1.10;;;18.10;99.90;;;;;;4903232;29;20048;-85
2022/10/09 11:53:22;;;;;;;7.75;1.23;;;18.10;99.90;;;;;;4911368;29;20052;-87
2022/10/09 11:56:21;;;;;;;10.65;1.77;;;18.10;99.90;;;;;;4911911;29;20044;-87
2022/10/09 11:59:03;;;;;;;7.90;1.23;;;18.10;99.90;;;;;;4911060;29;20060;-85
2022/10/09 12:01:37;;;;;;;5.40;1.17;;;18.30;99.90;;;;;;4930122;28;20046;-87
2022/10/09 12:04:28;;;;;;;6.38;2.05;;;18.30;99.90;;;;;;4969208;28;20057;-86
2022/10/09 12:07:06;;;;;;;9.45;1.73;;;18.50;99.90;;;;;;4952966;28;20525;-87
2022/10/09 12:09:47;;;;;;;7.93;1.45;;;18.40;99.90;;;;;;4937462;28;20134;-86
2022/10/09 12:12:22;;;;;;;7.15;1.42;;;18.50;99.90;;;;;;4952344;28;20490;-89
2022/10/09 12:14:50;;;;;;;9.00;1.25;;;18.70;99.90;;;;;;4968695;28;20794;-87
2022/10/09 12:17:22;;;;;;;5.45;1.25;;;18.80;99.90;;;;;;4968837;28;20062;-88
2022/10/09 12:19:53;;;;;;;7.82;1.85;;;18.90;99.90;;;;;;4968707;28;20395;-86
2022/10/09 12:22:34;;;;;;;6.38;1.55;;;19.00;99.90;;;;;;4937115;28;20089;-87
2022/10/09 12:25:22;;;;;;;7.47;1.48;;;19.00;99.90;;;;;;4969067;28;20098;-84
2022/10/09 12:27:53;;;;;;;8.20;1.63;;;18.80;99.90;;;;;;4969041;28;20075;-82
2022/10/09 12:30:22;;;;;;;10.52;1.60;;;18.80;99.90;;;;;;4968609;28;20174;-84
2022/10/09 12:33:03;;;;;;;7.88;1.60;;;18.90;99.90;;;;;;4952466;28;20084;-83
2022/10/09 12:35:35;;;;;;;6.43;1.27;;;18.80;99.90;;;;;;4953132;28;20054;-81
2022/10/09 12:38:01;;;;;;;8.55;1.50;;;18.80;99.90;;;;;;4989543;28;20069;-85
2022/10/09 12:40:31;;;;;;;6.65;1.88;;;18.80;99.90;;;;;;4989238;28;20058;-83
2022/10/09 12:42:59;;;;;;;4.32;1.40;;;18.90;99.90;;;;;;5019432;28;20120;-84
2022/10/09 12:45:30;;;;;;;5.47;1.70;;;18.90;99.90;;;;;;5011533;28;20112;-84
2022/10/09 12:48:11;;;;;;;6.40;1.70;;;19.00;99.60;;;;;;5029746;28;20041;-87
2022/10/09 12:50:37;;;;;;;8.02;2.00;;;18.80;98.90;;;;;;5013615;28;20046;-84
2022/10/09 12:53:15;;;;;;;6.35;1.42;;;18.80;99.20;;;;;;5033472;28;20096;-83
2022/10/09 12:55:47;;;;;;;11.43;2.50;;;19.00;99.90;;;;;;5033611;28;20072;-83
2022/10/09 12:58:42;;;;;;;8.63;1.85;;;19.10;99.50;;;;;;5015514;28;20050;-84
2022/10/09 13:01:13;;;;;;;13.00;2.00;;;19.10;98.60;;;;;;5010767;28;20064;-83
2022/10/09 13:03:51;;;;;;;6.00;2.10;;;19.20;99.70;;;;;;5010933;28;20062;-80
2022/10/09 13:06:20;;;;;;;6.72;1.88;;;19.30;98.80;;;;;;4994397;28;20420;-84
2022/10/09 13:08:55;;;;;;;7.30;2.00;;;19.30;99.20;;;;;;5010825;28;20424;-84
2022/10/09 13:11:39;;;;;;;8.07;2.25;;;19.10;98.80;;;;;;4994497;28;20062;-84